Terminal Aerodrome Forecast
Issued by NWS

Home | Current Version | Previous Version | Text Only | Print | Product List | Glossary On
Versions: 1 2 3 4 5 6 7 8 9 10 11 12 13 14 15 16 17 18 19 20 21 22
455
FTUS43 KDLH 102138 AAA
TAFHIB
TAF AMD
KHIB 102138Z 1022/1118 26003KT P6SM SCT018 SCT140
      TEMPO 1022/1023 BKN025
     FM110000 12002KT P6SM SCT014 BKN100
     FM110900 08004KT P6SM -SHSN SCT012 OVC030
     FM111500 10005KT 3SM -SN BR SCT008 OVC012=

USA.gov is the U.S. government's official web portal to all federal, state and local government web resources and services.